This is the latest recevied weather packets stored in our database for station/object VK4JLM-1. If no packets are shown the sender has not sent any weather packets the latest 10 day(s).
| Time | Temp. | Humidity | Pressure | Rain* | Wind** | Luminosity | Snow |
|---|---|---|---|---|---|---|---|
| 1777653130 | 18.89° C | 98% | 1024.1 hPa | 1.78 mm | - | - | - |
| 1777651946 | 19.44° C | 96% | 1023.7 hPa | 0 mm | - | - | - |
| 1777650811 | 18.89° C | 95% | 1023.7 hPa | 0 mm | - | - | - |
| 1777649830 | 18.89° C | 95% | 1023.9 hPa | 0 mm | - | - | - |
| 1777648796 | 18.89° C | 97% | 1024.1 hPa | 0 mm | - | - | - |
| 1777647651 | 18.89° C | 97% | 1024.4 hPa | 0 mm | - | - | - |
| 1777646471 | 18.89° C | 98% | 1024.5 hPa | 0 mm | - | - | - |
| 1777645506 | 18.89° C | 96% | 1024.6 hPa | 0 mm | - | - | - |
| 1777644406 | 18.89° C | 94% | 1024.7 hPa | 0 mm | - | - | - |
| 1777642151 | 18.89° C | 96% | 1024.9 hPa | 0 mm | - | - | - |
| 1777641134 | 18.89° C | 94% | 1024.9 hPa | 0 mm | - | - | - |
| 1777639971 | 18.89° C | 94% | 1024.9 hPa | 0.25 mm | - | - | - |
| 1777638896 | 18.89° C | 95% | 1025.1 hPa | 0.51 mm | - | - | - |
| 1777637736 | 18.89° C | 94% | 1025.1 hPa | 0.76 mm | - | - | - |
| 1777636731 | 18.89° C | 95% | 1025.2 hPa | 0.51 mm | - | - | - |
| 1777635686 | 18.89° C | 94% | 1025.4 hPa | 1.27 mm | - | - | - |
| 1777634646 | 18.89° C | 92% | 1025.3 hPa | 5.08 mm | - | - | - |
| 1777632521 | 18.89° C | 92% | 1025.1 hPa | 8.13 mm | - | - | - |
| 1777631326 | 18.89° C | 93% | 1025.1 hPa | 3.56 mm | - | - | - |
| 1777630211 | 18.89° C | 91% | 1025 hPa | 2.29 mm | - | - | - |
| 1777629011 | 19.44° C | 90% | 1024.9 hPa | 0 mm | - | - | - |
| 1777627926 | 20° C | 87% | 1024.7 hPa | 0 mm | - | - | - |
| 1777626814 | 20° C | 86% | 1024.6 hPa | 0 mm | - | - | - |
| 1777625756 | 20.56° C | 83% | 1024.4 hPa | 0 mm | - | - | - |
| 1777624751 | 20.56° C | 84% | 1024.6 hPa | 0 mm | - | - | - |
* Rain latest hour (hover to see other rain measurements)
** Current wind speed in m/s (hover to see current wind gust speed)